sensor_id;sensor_type;location;lat;lon;timestamp;P1;durP1;ratioP1;P2;durP2;ratioP2
78005;SDS011;67211;42.146;24.756;2023-04-01T00:00:23;9.38;;;6.75;;
78005;SDS011;67211;42.146;24.756;2023-04-01T00:02:49;13.25;;;8.23;;
78005;SDS011;67211;42.146;24.756;2023-04-01T00:05:14;10.60;;;6.68;;
78005;SDS011;67211;42.146;24.756;2023-04-01T00:07:41;9.52;;;8.18;;
78005;SDS011;67211;42.146;24.756;2023-04-01T00:10:09;9.07;;;7.57;;
78005;SDS011;67211;42.146;24.756;2023-04-01T00:12:36;6.93;;;6.22;;
78005;SDS011;67211;42.146;24.756;2023-04-01T00:15:02;11.05;;;7.00;;
78005;SDS011;67211;42.146;24.756;2023-04-01T00:17:29;10.77;;;5.93;;
78005;SDS011;67211;42.146;24.756;2023-04-01T00:19:55;9.15;;;7.60;;
78005;SDS011;67211;42.146;24.756;2023-04-01T00:22:21;9.13;;;7.07;;
78005;SDS011;67211;42.146;24.756;2023-04-01T00:24:47;9.13;;;7.07;;
78005;SDS011;67211;42.146;24.756;2023-04-01T00:27:13;9.02;;;6.95;;
78005;SDS011;67211;42.146;24.756;2023-04-01T00:29:41;10.13;;;7.78;;
78005;SDS011;67211;42.146;24.756;2023-04-01T00:32:10;10.55;;;7.88;;
78005;SDS011;67211;42.146;24.756;2023-04-01T00:34:36;9.73;;;7.43;;
78005;SDS011;67211;42.146;24.756;2023-04-01T00:37:01;10.60;;;7.80;;
78005;SDS011;67211;42.146;24.756;2023-04-01T00:39:30;10.40;;;7.88;;
78005;SDS011;67211;42.146;24.756;2023-04-01T00:41:57;9.65;;;7.03;;
78005;SDS011;67211;42.146;24.756;2023-04-01T00:44:24;11.45;;;7.68;;
78005;SDS011;67211;42.146;24.756;2023-04-01T00:46:51;8.63;;;7.10;;
78005;SDS011;67211;42.146;24.756;2023-04-01T00:49:20;9.27;;;7.72;;
78005;SDS011;67211;42.146;24.756;2023-04-01T00:51:50;8.63;;;7.30;;
78005;SDS011;67211;42.146;24.756;2023-04-01T00:54:17;10.52;;;6.82;;
78005;SDS011;67211;42.146;24.756;2023-04-01T00:56:50;9.98;;;6.63;;
78005;SDS011;67211;42.146;24.756;2023-04-01T00:59:33;10.02;;;8.30;;
78005;SDS011;67211;42.146;24.756;2023-04-01T01:02:05;10.05;;;6.05;;
78005;SDS011;67211;42.146;24.756;2023-04-01T01:04:33;11.90;;;8.20;;
78005;SDS011;67211;42.146;24.756;2023-04-01T01:07:10;11.63;;;6.47;;
78005;SDS011;67211;42.146;24.756;2023-04-01T01:15:19;12.15;;;8.93;;
78005;SDS011;67211;42.146;24.756;2023-04-01T01:23:29;13.52;;;8.80;;
78005;SDS011;67211;42.146;24.756;2023-04-01T01:31:29;11.32;;;8.90;;
78005;SDS011;67211;42.146;24.756;2023-04-01T01:34:18;10.48;;;7.25;;
78005;SDS011;67211;42.146;24.756;2023-04-01T01:36:55;10.90;;;7.53;;
78005;SDS011;67211;42.146;24.756;2023-04-01T01:39:25;11.77;;;6.05;;
78005;SDS011;67211;42.146;24.756;2023-04-01T01:41:53;12.82;;;7.95;;
78005;SDS011;67211;42.146;24.756;2023-04-01T01:44:20;13.68;;;7.28;;
78005;SDS011;67211;42.146;24.756;2023-04-01T01:46:46;10.40;;;8.10;;
78005;SDS011;67211;42.146;24.756;2023-04-01T01:49:12;8.52;;;7.32;;
78005;SDS011;67211;42.146;24.756;2023-04-01T01:51:39;12.77;;;7.32;;
78005;SDS011;67211;42.146;24.756;2023-04-01T01:54:05;10.82;;;7.32;;
78005;SDS011;67211;42.146;24.756;2023-04-01T01:56:30;11.23;;;7.30;;
78005;SDS011;67211;42.146;24.756;2023-04-01T01:58:59;12.10;;;7.88;;
78005;SDS011;67211;42.146;24.756;2023-04-01T02:01:27;10.10;;;7.10;;
78005;SDS011;67211;42.146;24.756;2023-04-01T02:03:55;10.48;;;7.60;;
78005;SDS011;67211;42.146;24.756;2023-04-01T02:06:22;8.13;;;6.72;;
78005;SDS011;67211;42.146;24.756;2023-04-01T02:08:50;10.75;;;4.93;;
78005;SDS011;67211;42.146;24.756;2023-04-01T02:11:23;7.93;;;5.03;;
78005;SDS011;67211;42.146;24.756;2023-04-01T02:13:54;8.88;;;6.22;;
78005;SDS011;67211;42.146;24.756;2023-04-01T02:16:29;7.53;;;5.68;;
78005;SDS011;67211;42.146;24.756;2023-04-01T02:19:04;9.63;;;6.68;;
78005;SDS011;67211;42.146;24.756;2023-04-01T02:21:32;10.45;;;6.50;;
78005;SDS011;67211;42.146;24.756;2023-04-01T02:23:58;9.50;;;6.07;;
78005;SDS011;67211;42.146;24.756;2023-04-01T02:26:26;6.65;;;5.95;;
78005;SDS011;67211;42.146;24.756;2023-04-01T02:28:55;9.98;;;6.38;;
78005;SDS011;67211;42.146;24.756;2023-04-01T02:31:22;10.20;;;8.13;;
78005;SDS011;67211;42.146;24.756;2023-04-01T02:33:48;13.15;;;9.32;;
78005;SDS011;67211;42.146;24.756;2023-04-01T02:36:14;11.80;;;8.48;;
78005;SDS011;67211;42.146;24.756;2023-04-01T02:38:42;10.18;;;8.40;;
78005;SDS011;67211;42.146;24.756;2023-04-01T02:41:10;11.57;;;8.10;;
78005;SDS011;67211;42.146;24.756;2023-04-01T02:43:36;11.27;;;8.57;;
78005;SDS011;67211;42.146;24.756;2023-04-01T02:46:01;11.57;;;8.00;;
78005;SDS011;67211;42.146;24.756;2023-04-01T02:48:27;13.57;;;8.85;;
78005;SDS011;67211;42.146;24.756;2023-04-01T02:50:53;13.07;;;7.95;;
78005;SDS011;67211;42.146;24.756;2023-04-01T02:53:18;11.10;;;7.88;;
78005;SDS011;67211;42.146;24.756;2023-04-01T02:55:43;13.45;;;8.57;;
78005;SDS011;67211;42.146;24.756;2023-04-01T02:58:09;9.82;;;7.45;;
78005;SDS011;67211;42.146;24.756;2023-04-01T03:00:35;9.50;;;7.38;;
78005;SDS011;67211;42.146;24.756;2023-04-01T03:03:01;10.38;;;6.68;;
78005;SDS011;67211;42.146;24.756;2023-04-01T03:05:27;12.95;;;8.75;;
78005;SDS011;67211;42.146;24.756;2023-04-01T03:07:52;17.45;;;8.18;;
78005;SDS011;67211;42.146;24.756;2023-04-01T03:10:18;15.40;;;9.85;;
78005;SDS011;67211;42.146;24.756;2023-04-01T03:12:43;19.50;;;14.52;;
78005;SDS011;67211;42.146;24.756;2023-04-01T03:15:09;14.18;;;10.23;;
78005;SDS011;67211;42.146;24.756;2023-04-01T03:17:36;13.23;;;9.57;;
78005;SDS011;67211;42.146;24.756;2023-04-01T03:20:02;13.32;;;10.40;;
78005;SDS011;67211;42.146;24.756;2023-04-01T03:22:29;11.52;;;10.27;;
78005;SDS011;67211;42.146;24.756;2023-04-01T03:24:55;11.98;;;9.68;;
78005;SDS011;67211;42.146;24.756;2023-04-01T03:27:20;14.75;;;10.32;;
78005;SDS011;67211;42.146;24.756;2023-04-01T03:29:46;12.57;;;9.50;;
78005;SDS011;67211;42.146;24.756;2023-04-01T03:32:11;12.38;;;9.95;;
78005;SDS011;67211;42.146;24.756;2023-04-01T03:34:37;16.38;;;10.23;;
78005;SDS011;67211;42.146;24.756;2023-04-01T03:37:02;12.75;;;10.05;;
78005;SDS011;67211;42.146;24.756;2023-04-01T03:39:28;11.88;;;10.57;;
78005;SDS011;67211;42.146;24.756;2023-04-01T03:41:53;14.27;;;10.07;;
78005;SDS011;67211;42.146;24.756;2023-04-01T03:44:19;11.93;;;9.65;;
78005;SDS011;67211;42.146;24.756;2023-04-01T03:46:44;16.17;;;10.15;;
78005;SDS011;67211;42.146;24.756;2023-04-01T03:49:10;11.40;;;9.77;;
78005;SDS011;67211;42.146;24.756;2023-04-01T03:51:39;12.95;;;8.65;;
78005;SDS011;67211;42.146;24.756;2023-04-01T03:54:06;13.32;;;10.35;;
78005;SDS011;67211;42.146;24.756;2023-04-01T03:56:32;14.38;;;11.05;;
78005;SDS011;67211;42.146;24.756;2023-04-01T03:58:57;14.55;;;11.18;;
78005;SDS011;67211;42.146;24.756;2023-04-01T04:01:23;14.90;;;11.55;;
78005;SDS011;67211;42.146;24.756;2023-04-01T04:03:48;13.70;;;10.43;;
78005;SDS011;67211;42.146;24.756;2023-04-01T04:06:14;12.70;;;10.70;;
78005;SDS011;67211;42.146;24.756;2023-04-01T04:08:43;13.10;;;10.52;;
78005;SDS011;67211;42.146;24.756;2023-04-01T04:11:09;12.95;;;10.25;;
78005;SDS011;67211;42.146;24.756;2023-04-01T04:13:35;13.23;;;9.70;;
78005;SDS011;67211;42.146;24.756;2023-04-01T04:16:01;12.50;;;10.05;;
78005;SDS011;67211;42.146;24.756;2023-04-01T04:18:29;12.65;;;9.80;;
78005;SDS011;67211;42.146;24.756;2023-04-01T04:20:55;13.43;;;9.27;;
78005;SDS011;67211;42.146;24.756;2023-04-01T04:23:20;10.82;;;7.72;;
78005;SDS011;67211;42.146;24.756;2023-04-01T04:25:53;14.98;;;10.02;;
78005;SDS011;67211;42.146;24.756;2023-04-01T04:28:22;11.90;;;9.15;;
78005;SDS011;67211;42.146;24.756;2023-04-01T04:30:49;10.80;;;7.70;;
78005;SDS011;67211;42.146;24.756;2023-04-01T04:33:15;9.52;;;8.57;;
78005;SDS011;67211;42.146;24.756;2023-04-01T04:35:40;9.75;;;8.75;;
78005;SDS011;67211;42.146;24.756;2023-04-01T04:38:05;10.23;;;7.93;;
78005;SDS011;67211;42.146;24.756;2023-04-01T04:40:31;13.15;;;8.35;;
78005;SDS011;67211;42.146;24.756;2023-04-01T04:42:56;11.75;;;9.63;;
78005;SDS011;67211;42.146;24.756;2023-04-01T04:45:22;11.18;;;8.35;;
78005;SDS011;67211;42.146;24.756;2023-04-01T04:47:47;11.05;;;8.02;;
78005;SDS011;67211;42.146;24.756;2023-04-01T04:50:12;10.70;;;6.50;;
78005;SDS011;67211;42.146;24.756;2023-04-01T04:52:38;9.68;;;5.93;;
78005;SDS011;67211;42.146;24.756;2023-04-01T04:55:04;11.40;;;8.35;;
78005;SDS011;67211;42.146;24.756;2023-04-01T04:57:29;9.07;;;7.82;;
78005;SDS011;67211;42.146;24.756;2023-04-01T04:59:55;12.55;;;8.70;;
78005;SDS011;67211;42.146;24.756;2023-04-01T05:02:20;11.50;;;7.85;;
78005;SDS011;67211;42.146;24.756;2023-04-01T05:04:46;9.35;;;7.63;;
78005;SDS011;67211;42.146;24.756;2023-04-01T05:07:11;10.02;;;7.30;;
78005;SDS011;67211;42.146;24.756;2023-04-01T05:09:37;12.18;;;7.47;;
78005;SDS011;67211;42.146;24.756;2023-04-01T05:12:02;10.88;;;8.23;;
78005;SDS011;67211;42.146;24.756;2023-04-01T05:14:28;12.02;;;10.93;;
78005;SDS011;67211;42.146;24.756;2023-04-01T05:16:53;10.88;;;7.30;;
78005;SDS011;67211;42.146;24.756;2023-04-01T05:19:19;11.35;;;7.60;;
78005;SDS011;67211;42.146;24.756;2023-04-01T05:21:45;8.18;;;6.57;;
78005;SDS011;67211;42.146;24.756;2023-04-01T05:24:10;9.95;;;5.90;;
78005;SDS011;67211;42.146;24.756;2023-04-01T05:26:36;8.35;;;7.35;;
78005;SDS011;67211;42.146;24.756;2023-04-01T05:29:04;9.98;;;7.00;;
78005;SDS011;67211;42.146;24.756;2023-04-01T05:31:30;9.80;;;7.25;;
78005;SDS011;67211;42.146;24.756;2023-04-01T05:33:55;8.25;;;6.72;;
78005;SDS011;67211;42.146;24.756;2023-04-01T05:36:21;10.20;;;6.28;;
78005;SDS011;67211;42.146;24.756;2023-04-01T05:38:47;20.85;;;12.50;;
78005;SDS011;67211;42.146;24.756;2023-04-01T05:41:13;19.50;;;11.85;;
78005;SDS011;67211;42.146;24.756;2023-04-01T05:43:39;13.82;;;9.50;;
78005;SDS011;67211;42.146;24.756;2023-04-01T05:46:05;18.02;;;12.50;;
78005;SDS011;67211;42.146;24.756;2023-04-01T05:48:32;19.90;;;15.27;;
78005;SDS011;67211;42.146;24.756;2023-04-01T05:50:59;26.50;;;18.83;;
78005;SDS011;67211;42.146;24.756;2023-04-01T05:53:24;26.90;;;19.90;;
78005;SDS011;67211;42.146;24.756;2023-04-01T05:55:50;25.67;;;20.25;;
78005;SDS011;67211;42.146;24.756;2023-04-01T05:58:15;31.25;;;24.83;;
78005;SDS011;67211;42.146;24.756;2023-04-01T06:00:41;28.83;;;20.52;;
78005;SDS011;67211;42.146;24.756;2023-04-01T06:03:06;30.45;;;23.13;;
78005;SDS011;67211;42.146;24.756;2023-04-01T06:05:39;33.70;;;20.88;;
78005;SDS011;67211;42.146;24.756;2023-04-01T06:08:13;22.05;;;15.23;;
78005;SDS011;67211;42.146;24.756;2023-04-01T06:26:25;12.25;;;7.97;;
78005;SDS011;67211;42.146;24.756;2023-04-01T06:45:58;14.27;;;8.30;;
78005;SDS011;67211;42.146;24.756;2023-04-01T06:53:56;9.57;;;7.28;;
78005;SDS011;67211;42.146;24.756;2023-04-01T06:56:42;11.85;;;7.20;;
78005;SDS011;67211;42.146;24.756;2023-04-01T06:59:17;8.50;;;6.78;;
78005;SDS011;67211;42.146;24.756;2023-04-01T07:01:49;8.35;;;7.32;;
78005;SDS011;67211;42.146;24.756;2023-04-01T07:04:27;8.90;;;5.65;;
78005;SDS011;67211;42.146;24.756;2023-04-01T07:06:58;8.70;;;6.95;;
78005;SDS011;67211;42.146;24.756;2023-04-01T07:09:31;10.18;;;7.53;;
78005;SDS011;67211;42.146;24.756;2023-04-01T07:12:00;10.30;;;7.07;;
78005;SDS011;67211;42.146;24.756;2023-04-01T07:17:17;10.68;;;7.18;;
78005;SDS011;67211;42.146;24.756;2023-04-01T07:19:52;12.27;;;7.65;;
78005;SDS011;67211;42.146;24.756;2023-04-01T07:25:15;10.27;;;7.68;;
78005;SDS011;67211;42.146;24.756;2023-04-01T07:27:43;8.85;;;6.82;;
78005;SDS011;67211;42.146;24.756;2023-04-01T07:30:14;9.65;;;7.45;;
78005;SDS011;67211;42.146;24.756;2023-04-01T07:35:21;10.18;;;8.02;;
78005;SDS011;67211;42.146;24.756;2023-04-01T07:44:13;10.68;;;7.32;;
78005;SDS011;67211;42.146;24.756;2023-04-01T07:47:25;7.35;;;6.07;;
78005;SDS011;67211;42.146;24.756;2023-04-01T07:52:31;8.15;;;6.85;;
78005;SDS011;67211;42.146;24.756;2023-04-01T07:57:49;9.48;;;7.35;;
78005;SDS011;67211;42.146;24.756;2023-04-01T08:00:24;10.13;;;7.75;;
78005;SDS011;67211;42.146;24.756;2023-04-01T08:05:26;8.40;;;6.70;;
78005;SDS011;67211;42.146;24.756;2023-04-01T08:08:09;9.30;;;7.05;;
78005;SDS011;67211;42.146;24.756;2023-04-01T08:28:48;22.35;;;13.20;;
78005;SDS011;67211;42.146;24.756;2023-04-01T08:31:26;22.58;;;12.88;;
78005;SDS011;67211;42.146;24.756;2023-04-01T08:34:04;20.58;;;13.82;;
78005;SDS011;67211;42.146;24.756;2023-04-01T08:36:36;14.05;;;8.38;;
78005;SDS011;67211;42.146;24.756;2023-04-01T08:39:06;11.98;;;9.10;;
78005;SDS011;67211;42.146;24.756;2023-04-01T08:41:59;12.65;;;9.82;;
78005;SDS011;67211;42.146;24.756;2023-04-01T09:06:57;15.13;;;8.02;;
78005;SDS011;67211;42.146;24.756;2023-04-01T09:46:06;12.02;;;8.77;;
78005;SDS011;67211;42.146;24.756;2023-04-01T09:56:27;9.80;;;7.88;;
78005;SDS011;67211;42.146;24.756;2023-04-01T09:59:40;9.77;;;7.53;;
78005;SDS011;67211;42.146;24.756;2023-04-01T10:05:22;13.02;;;9.95;;
78005;SDS011;67211;42.146;24.756;2023-04-01T10:19:54;14.68;;;10.55;;
78005;SDS011;67211;42.146;24.756;2023-04-01T10:54:44;12.45;;;9.10;;
78005;SDS011;67211;42.146;24.756;2023-04-01T11:33:49;10.68;;;7.10;;
78005;SDS011;67211;42.146;24.756;2023-04-01T11:44:50;9.88;;;7.18;;
78005;SDS011;67211;42.146;24.756;2023-04-01T11:50:20;10.90;;;7.47;;
78005;SDS011;67211;42.146;24.756;2023-04-01T11:58:45;9.95;;;6.53;;
78005;SDS011;67211;42.146;24.756;2023-04-01T12:01:27;9.95;;;7.05;;
78005;SDS011;67211;42.146;24.756;2023-04-01T12:04:09;12.10;;;7.07;;
78005;SDS011;67211;42.146;24.756;2023-04-01T12:06:51;9.32;;;6.78;;
78005;SDS011;67211;42.146;24.756;2023-04-01T12:12:11;9.93;;;7.07;;
78005;SDS011;67211;42.146;24.756;2023-04-01T12:17:46;11.25;;;6.75;;
78005;SDS011;67211;42.146;24.756;2023-04-01T12:20:26;8.77;;;6.72;;
78005;SDS011;67211;42.146;24.756;2023-04-01T12:22:59;11.00;;;6.82;;
78005;SDS011;67211;42.146;24.756;2023-04-01T12:25:52;9.60;;;6.30;;
78005;SDS011;67211;42.146;24.756;2023-04-01T12:37:23;11.95;;;7.07;;
78005;SDS011;67211;42.146;24.756;2023-04-01T12:40:09;12.02;;;6.63;;
78005;SDS011;67211;42.146;24.756;2023-04-01T13:08:09;8.18;;;5.13;;
78005;SDS011;67211;42.146;24.756;2023-04-01T13:10:54;10.70;;;6.10;;
78005;SDS011;67211;42.146;24.756;2023-04-01T13:25:00;11.20;;;6.28;;
78005;SDS011;67211;42.146;24.756;2023-04-01T13:27:34;12.80;;;7.82;;
78005;SDS011;67211;42.146;24.756;2023-04-01T13:30:38;11.45;;;8.18;;
78005;SDS011;67211;42.146;24.756;2023-04-01T13:36:14;10.80;;;6.00;;
78005;SDS011;67211;42.146;24.756;2023-04-01T13:41:22;9.80;;;7.25;;
78005;SDS011;67211;42.146;24.756;2023-04-01T13:50:01;17.20;;;9.27;;
78005;SDS011;67211;42.146;24.756;2023-04-01T13:55:10;12.85;;;9.40;;
78005;SDS011;67211;42.146;24.756;2023-04-01T13:58:35;12.18;;;8.38;;
78005;SDS011;67211;42.146;24.756;2023-04-01T14:00:53;12.05;;;9.40;;
78005;SDS011;67211;42.146;24.756;2023-04-01T14:14:36;7.38;;;4.82;;
78005;SDS011;67211;42.146;24.756;2023-04-01T14:39:29;7.38;;;5.15;;
78005;SDS011;67211;42.146;24.756;2023-04-01T14:50:50;6.18;;;5.05;;
78005;SDS011;67211;42.146;24.756;2023-04-01T14:55:50;9.82;;;4.63;;
78005;SDS011;67211;42.146;24.756;2023-04-01T14:58:23;5.68;;;4.40;;
78005;SDS011;67211;42.146;24.756;2023-04-01T15:00:56;5.93;;;4.45;;
78005;SDS011;67211;42.146;24.756;2023-04-01T15:03:26;7.43;;;5.15;;
78005;SDS011;67211;42.146;24.756;2023-04-01T15:08:54;8.63;;;5.15;;
78005;SDS011;67211;42.146;24.756;2023-04-01T15:14:02;11.95;;;9.38;;
78005;SDS011;67211;42.146;24.756;2023-04-01T15:22:27;7.65;;;4.60;;
78005;SDS011;67211;42.146;24.756;2023-04-01T15:34:02;5.20;;;4.10;;
78005;SDS011;67211;42.146;24.756;2023-04-01T15:36:47;7.97;;;4.63;;
78005;SDS011;67211;42.146;24.756;2023-04-01T15:58:02;7.07;;;5.00;;
78005;SDS011;67211;42.146;24.756;2023-04-01T16:03:52;8.25;;;4.90;;
78005;SDS011;67211;42.146;24.756;2023-04-01T16:11:47;9.68;;;6.07;;
78005;SDS011;67211;42.146;24.756;2023-04-01T16:20:17;9.40;;;6.40;;
78005;SDS011;67211;42.146;24.756;2023-04-01T16:22:48;5.78;;;4.75;;
78005;SDS011;67211;42.146;24.756;2023-04-01T16:25:32;9.13;;;5.93;;
78005;SDS011;67211;42.146;24.756;2023-04-01T16:30:47;6.93;;;4.63;;
78005;SDS011;67211;42.146;24.756;2023-04-01T16:36:36;6.45;;;4.80;;
78005;SDS011;67211;42.146;24.756;2023-04-01T16:41:34;6.43;;;4.32;;
78005;SDS011;67211;42.146;24.756;2023-04-01T16:44:24;5.63;;;4.65;;
78005;SDS011;67211;42.146;24.756;2023-04-01T16:47:05;7.55;;;5.03;;
78005;SDS011;67211;42.146;24.756;2023-04-01T16:52:39;6.93;;;4.47;;
78005;SDS011;67211;42.146;24.756;2023-04-01T16:55:17;9.00;;;4.75;;
78005;SDS011;67211;42.146;24.756;2023-04-01T17:32:59;13.35;;;9.15;;
78005;SDS011;67211;42.146;24.756;2023-04-01T17:41:18;9.05;;;7.35;;
78005;SDS011;67211;42.146;24.756;2023-04-01T17:43:56;11.73;;;8.95;;
78005;SDS011;67211;42.146;24.756;2023-04-01T18:09:05;9.35;;;6.00;;
78005;SDS011;67211;42.146;24.756;2023-04-01T18:24:54;30.90;;;17.75;;
78005;SDS011;67211;42.146;24.756;2023-04-01T18:29:54;4.28;;;2.70;;
78005;SDS011;67211;42.146;24.756;2023-04-01T18:32:35;4.35;;;2.20;;
78005;SDS011;67211;42.146;24.756;2023-04-01T18:35:14;8.73;;;5.32;;
78005;SDS011;67211;42.146;24.756;2023-04-01T18:40:32;3.40;;;2.47;;
78005;SDS011;67211;42.146;24.756;2023-04-01T18:56:30;3.58;;;2.42;;
78005;SDS011;67211;42.146;24.756;2023-04-01T18:59:01;3.60;;;2.47;;
78005;SDS011;67211;42.146;24.756;2023-04-01T19:04:57;3.47;;;2.85;;
78005;SDS011;67211;42.146;24.756;2023-04-01T19:10:13;3.35;;;2.33;;
78005;SDS011;67211;42.146;24.756;2023-04-01T19:15:39;3.53;;;2.85;;
78005;SDS011;67211;42.146;24.756;2023-04-01T19:43:13;4.10;;;3.08;;
78005;SDS011;67211;42.146;24.756;2023-04-01T19:51:13;3.80;;;2.78;;
78005;SDS011;67211;42.146;24.756;2023-04-01T20:04:41;3.90;;;2.97;;
78005;SDS011;67211;42.146;24.756;2023-04-01T20:07:10;4.22;;;2.55;;
78005;SDS011;67211;42.146;24.756;2023-04-01T20:17:56;6.10;;;3.55;;
78005;SDS011;67211;42.146;24.756;2023-04-01T20:20:27;4.20;;;3.47;;
78005;SDS011;67211;42.146;24.756;2023-04-01T20:22:55;4.35;;;3.85;;
78005;SDS011;67211;42.146;24.756;2023-04-01T20:25:46;4.18;;;2.25;;
78005;SDS011;67211;42.146;24.756;2023-04-01T20:58:07;4.03;;;3.67;;
78005;SDS011;67211;42.146;24.756;2023-04-01T21:09:11;7.10;;;6.40;;
78005;SDS011;67211;42.146;24.756;2023-04-01T21:42:32;4.05;;;3.55;;
78005;SDS011;67211;42.146;24.756;2023-04-01T22:03:43;4.78;;;4.28;;
78005;SDS011;67211;42.146;24.756;2023-04-01T22:06:40;3.72;;;3.30;;
78005;SDS011;67211;42.146;24.756;2023-04-01T22:09:12;4.40;;;4.00;;
78005;SDS011;67211;42.146;24.756;2023-04-01T22:31:42;6.00;;;5.40;;
78005;SDS011;67211;42.146;24.756;2023-04-01T22:43:05;3.83;;;3.53;;
78005;SDS011;67211;42.146;24.756;2023-04-01T22:56:46;3.85;;;3.47;;
78005;SDS011;67211;42.146;24.756;2023-04-01T23:01:42;3.97;;;3.65;;
78005;SDS011;67211;42.146;24.756;2023-04-01T23:04:15;4.45;;;4.05;;
78005;SDS011;67211;42.146;24.756;2023-04-01T23:06:44;3.47;;;3.15;;
78005;SDS011;67211;42.146;24.756;2023-04-01T23:11:47;3.53;;;3.22;;
78005;SDS011;67211;42.146;24.756;2023-04-01T23:16:57;3.80;;;3.40;;
78005;SDS011;67211;42.146;24.756;2023-04-01T23:28:53;4.35;;;3.55;;
78005;SDS011;67211;42.146;24.756;2023-04-01T23:31:28;4.68;;;4.28;;
78005;SDS011;67211;42.146;24.756;2023-04-01T23:34:00;3.90;;;3.55;;
78005;SDS011;67211;42.146;24.756;2023-04-01T23:36:27;4.00;;;3.30;;
78005;SDS011;67211;42.146;24.756;2023-04-01T23:38:53;3.70;;;3.30;;
78005;SDS011;67211;42.146;24.756;2023-04-01T23:41:20;4.50;;;3.40;;
78005;SDS011;67211;42.146;24.756;2023-04-01T23:44:21;4.57;;;4.18;;
78005;SDS011;67211;42.146;24.756;2023-04-01T23:46:40;4.03;;;3.63;;
78005;SDS011;67211;42.146;24.756;2023-04-01T23:49:12;7.68;;;5.72;;
78005;SDS011;67211;42.146;24.756;2023-04-01T23:51:46;4.40;;;3.35;;
78005;SDS011;67211;42.146;24.756;2023-04-01T23:56:58;5.22;;;4.40;;
78005;SDS011;67211;42.146;24.756;2023-04-01T23:59:27;3.97;;;3.40;;
